Arboles, Colorado
Current Conditions -  °F | °C
As of 6:53 PM on Saturday 25 Oct 2014 (Local Time) from KDRO Reporting Station
Clear Clear  
Wind Chill: 64°   Ceiling: Unl
Heat Index: 64°   Visibility: 10mi
Dew Point: 31°   Wind: 0mph
Humidity: 29%   Direction: NA
Pressure: 30.24"   Gusts: NA
Location:  37.03°N, 107.42°W
Report Text: KDRO 260053Z AUTO 00000KT 10SM CLR 18/M01 A3024 RMK AO2 SLP204 T01781006
Loading
Personal Weather Stations






























Interactive Weather Map
Tropical Storm Tracking
New forecast layout! Learn more

10-Day Weather Forecast

Advertisements
Track Severe Weather on mobile